createdAt,value
2018-12-08T00:00:42.171Z,5.10
2018-12-08T00:03:10.735Z,3.00
2018-12-08T00:05:38.957Z,4.43
2018-12-08T00:08:07.150Z,3.83
2018-12-08T00:10:35.432Z,3.17
2018-12-08T00:13:03.719Z,3.03
2018-12-08T00:15:31.882Z,3.40
2018-12-08T00:18:00.060Z,3.97
2018-12-08T00:20:28.389Z,2.60
2018-12-08T00:22:56.559Z,2.67
2018-12-08T00:25:24.716Z,3.70
2018-12-08T00:27:52.910Z,2.97
2018-12-08T00:31:32.368Z,1.93
2018-12-08T00:34:00.772Z,2.80
2018-12-08T00:36:28.917Z,2.57
2018-12-08T00:38:57.163Z,1.53
2018-12-08T00:41:25.341Z,1.60
2018-12-08T00:43:53.518Z,2.37
2018-12-08T00:46:21.700Z,1.83
2018-12-08T00:48:50.043Z,1.53
2018-12-08T00:51:18.181Z,1.70
2018-12-08T00:53:46.398Z,1.50
2018-12-08T00:56:14.571Z,3.10
2018-12-08T00:58:42.737Z,1.90
2018-12-08T01:01:11.034Z,1.60
2018-12-08T01:03:39.283Z,2.13
2018-12-08T01:06:07.485Z,2.47
2018-12-08T01:08:35.789Z,1.43
2018-12-08T01:11:04.064Z,1.23
2018-12-08T01:13:32.312Z,2.70
2018-12-08T01:16:00.626Z,1.70
2018-12-08T01:18:28.817Z,1.90
2018-12-08T01:20:57.031Z,2.17
2018-12-08T01:23:25.217Z,1.60
2018-12-08T01:25:53.491Z,2.47
2018-12-08T01:28:21.791Z,1.60
2018-12-08T01:30:49.955Z,4.87
2018-12-08T01:33:18.109Z,2.40
2018-12-08T01:35:46.294Z,2.40
2018-12-08T01:38:14.469Z,1.97
2018-12-08T01:40:42.819Z,1.87
2018-12-08T01:43:11.040Z,1.43
2018-12-08T01:45:39.372Z,1.67
2018-12-08T01:48:07.544Z,2.90
2018-12-08T01:50:35.798Z,2.17
2018-12-08T01:53:04.004Z,2.17
2018-12-08T01:55:32.265Z,2.73
2018-12-08T01:58:00.574Z,1.77
2018-12-08T02:00:28.757Z,1.30
2018-12-08T02:02:56.917Z,1.10
2018-12-08T02:05:25.121Z,2.93
2018-12-08T02:07:53.278Z,1.73
2018-12-08T02:10:21.441Z,1.60
2018-12-08T02:12:49.617Z,0.97
2018-12-08T02:15:17.766Z,1.20
2018-12-08T02:17:45.924Z,1.53
2018-12-08T02:20:14.115Z,1.53
2018-12-08T02:22:42.287Z,1.67
2018-12-08T02:25:10.657Z,2.07
2018-12-08T02:27:38.930Z,1.90
2018-12-08T02:30:07.573Z,1.43
2018-12-08T02:32:35.728Z,1.23
2018-12-08T02:35:04.115Z,1.93
2018-12-08T02:37:32.304Z,1.87
2018-12-08T02:40:00.563Z,1.30
2018-12-08T02:42:28.783Z,1.30
2018-12-08T02:44:56.939Z,1.30
2018-12-08T02:47:25.146Z,1.33
2018-12-08T02:49:53.482Z,1.43
2018-12-08T02:52:22.478Z,1.70
2018-12-08T02:54:50.655Z,1.13
2018-12-08T02:57:18.838Z,1.27
2018-12-08T02:59:47.012Z,1.97
2018-12-08T03:02:15.260Z,1.73
2018-12-08T03:04:43.621Z,1.20
2018-12-08T03:07:11.774Z,2.10
2018-12-08T03:09:39.963Z,1.60
2018-12-08T03:12:08.122Z,2.33
2018-12-08T03:14:36.287Z,2.00
2018-12-08T03:17:04.950Z,1.60
2018-12-08T03:19:33.283Z,2.60
2018-12-08T03:22:01.447Z,1.13
2018-12-08T03:24:29.710Z,1.17
2018-12-08T03:26:58.008Z,1.03
2018-12-08T03:29:26.151Z,1.10
2018-12-08T03:31:54.823Z,2.40
2018-12-08T03:34:23.283Z,3.23
2018-12-08T03:36:51.444Z,2.00
2018-12-08T03:39:19.743Z,1.60
2018-12-08T03:41:47.936Z,1.73
2018-12-08T03:44:16.079Z,1.90
2018-12-08T03:46:44.263Z,4.10
2018-12-08T03:49:12.546Z,2.10
2018-12-08T03:51:40.796Z,2.90
2018-12-08T03:54:09.055Z,2.87
2018-12-08T03:56:37.232Z,3.10
2018-12-08T03:59:05.496Z,1.80
2018-12-08T04:01:33.636Z,1.50
2018-12-08T04:04:01.816Z,1.73
2018-12-08T04:06:30.138Z,1.77
2018-12-08T04:08:58.387Z,2.40
2018-12-08T04:11:26.583Z,2.40
2018-12-08T04:13:54.743Z,1.87
2018-12-08T04:16:22.906Z,2.93
2018-12-08T04:18:51.098Z,1.57
2018-12-08T04:21:19.279Z,1.10
2018-12-08T04:23:47.538Z,1.47
2018-12-08T04:26:15.746Z,0.90
2018-12-08T04:28:43.915Z,1.97
2018-12-08T04:31:12.080Z,0.80
2018-12-08T04:33:40.263Z,1.70
2018-12-08T04:36:08.447Z,1.10
2018-12-08T04:38:36.673Z,1.40
2018-12-08T04:41:05.400Z,1.30
2018-12-08T04:43:33.634Z,1.50
2018-12-08T04:46:01.798Z,1.67
2018-12-08T04:48:29.995Z,1.97
2018-12-08T04:50:58.253Z,1.77
2018-12-08T04:53:26.505Z,1.00
2018-12-08T04:55:54.689Z,2.50
2018-12-08T04:58:22.887Z,0.90
2018-12-08T05:00:51.211Z,1.00
2018-12-08T05:03:19.355Z,1.20
2018-12-08T05:05:47.583Z,1.40
2018-12-08T05:08:15.799Z,0.80
2018-12-08T05:10:44.145Z,1.40
2018-12-08T05:13:12.330Z,1.20
2018-12-08T05:15:40.491Z,1.90
2018-12-08T05:18:08.704Z,1.40
2018-12-08T05:20:36.907Z,1.70
2018-12-08T05:23:05.170Z,1.00
2018-12-08T05:25:33.555Z,1.60
2018-12-08T05:28:01.724Z,2.00
2018-12-08T05:30:29.976Z,1.90
2018-12-08T05:32:58.137Z,1.07
2018-12-08T05:35:26.287Z,1.20
2018-12-08T05:37:54.536Z,0.90
2018-12-08T05:40:22.720Z,0.90
2018-12-08T05:42:50.898Z,1.30
2018-12-08T05:45:19.139Z,1.07
2018-12-08T05:47:47.323Z,2.00
2018-12-08T05:50:15.487Z,1.23
2018-12-08T05:52:43.847Z,1.10
2018-12-08T05:55:12.167Z,1.47
2018-12-08T05:57:40.420Z,1.53
2018-12-08T06:00:09.380Z,1.47
2018-12-08T06:02:37.565Z,1.83
2018-12-08T06:05:06.962Z,1.00
2018-12-08T06:07:35.274Z,0.90
2018-12-08T06:10:03.772Z,2.30
2018-12-08T06:12:31.994Z,1.20
2018-12-08T06:15:01.027Z,0.90
2018-12-08T06:17:29.228Z,1.03
2018-12-08T06:19:57.398Z,1.00
2018-12-08T06:22:25.860Z,1.17
2018-12-08T06:24:54.006Z,1.20
2018-12-08T06:28:04.577Z,2.30
2018-12-08T06:30:32.735Z,1.03
2018-12-08T06:33:00.916Z,2.13
2018-12-08T06:35:29.466Z,1.20
2018-12-08T06:37:57.655Z,1.33
2018-12-08T06:40:29.191Z,1.27
2018-12-08T06:42:56.407Z,1.60
2018-12-08T06:45:24.651Z,1.20
2018-12-08T06:47:52.884Z,1.50
2018-12-08T06:50:21.089Z,1.80
2018-12-08T06:52:49.256Z,0.80
2018-12-08T06:55:17.455Z,0.90
2018-12-08T06:57:45.671Z,0.97
2018-12-08T07:00:14.271Z,0.90
2018-12-08T07:02:42.551Z,1.20
2018-12-08T07:05:10.772Z,0.70
2018-12-08T07:07:39.044Z,1.07
2018-12-08T07:10:07.562Z,0.60
2018-12-08T07:12:35.723Z,1.03
2018-12-08T07:15:04.287Z,1.17
2018-12-08T07:17:32.482Z,0.93
2018-12-08T07:20:00.743Z,1.90
2018-12-08T07:22:29.035Z,0.80
2018-12-08T07:24:57.239Z,1.93
2018-12-08T07:27:25.417Z,1.20
2018-12-08T07:29:53.569Z,1.40
2018-12-08T07:32:21.755Z,2.00
2018-12-08T07:34:49.958Z,0.80
2018-12-08T07:37:18.255Z,1.10
2018-12-08T07:39:46.425Z,1.00
2018-12-08T07:42:15.877Z,1.70
2018-12-08T07:44:44.119Z,1.30
2018-12-08T07:47:12.427Z,1.10
2018-12-08T07:49:40.734Z,0.97
2018-12-08T07:52:08.925Z,1.13
2018-12-08T07:54:37.123Z,2.07
2018-12-08T07:57:06.289Z,1.23
2018-12-08T07:59:34.503Z,0.97
2018-12-08T08:02:02.667Z,1.17
2018-12-08T08:04:30.864Z,1.40
2018-12-08T08:06:59.297Z,1.10
2018-12-08T08:09:27.577Z,1.30
2018-12-08T08:11:56.186Z,0.87
2018-12-08T08:14:24.491Z,1.40
2018-12-08T08:16:52.782Z,1.40
2018-12-08T08:19:21.427Z,1.57
2018-12-08T08:21:50.929Z,0.90
2018-12-08T08:24:19.231Z,1.37
2018-12-08T08:26:47.527Z,2.00
2018-12-08T08:29:15.927Z,1.93
2018-12-08T08:31:44.274Z,1.80
2018-12-08T08:34:12.791Z,2.20
2018-12-08T08:36:41.119Z,1.00
2018-12-08T08:39:11.100Z,3.20
2018-12-08T08:41:39.579Z,2.13
2018-12-08T08:44:08.804Z,1.00
2018-12-08T08:46:37.442Z,1.53
2018-12-08T08:49:05.645Z,3.50
2018-12-08T08:51:33.967Z,1.53
2018-12-08T08:54:02.191Z,1.37
2018-12-08T08:56:30.489Z,3.07
2018-12-08T08:58:59.017Z,1.77
2018-12-08T09:01:27.437Z,1.67
2018-12-08T09:03:56.367Z,1.50
2018-12-08T09:06:25.350Z,1.40
2018-12-08T09:08:53.561Z,1.30
2018-12-08T09:11:21.742Z,1.83
2018-12-08T09:13:49.944Z,1.90
2018-12-08T09:16:18.220Z,2.00
2018-12-08T09:18:46.521Z,2.40
2018-12-08T09:21:14.710Z,1.30
2018-12-08T09:23:43.735Z,1.10
2018-12-08T09:26:12.061Z,1.10
2018-12-08T09:28:40.263Z,1.37
2018-12-08T09:31:08.347Z,1.30
2018-12-08T09:33:36.506Z,1.27
2018-12-08T09:36:04.718Z,1.10
2018-12-08T09:38:33.444Z,1.80
2018-12-08T09:41:01.453Z,1.73
2018-12-08T09:43:29.784Z,1.20
2018-12-08T09:45:58.365Z,2.40
2018-12-08T09:48:26.778Z,1.40
2018-12-08T09:50:55.126Z,2.50
2018-12-08T09:53:23.389Z,1.50
2018-12-08T09:55:51.676Z,2.60
2018-12-08T09:58:20.150Z,1.87
2018-12-08T10:00:48.415Z,3.13
2018-12-08T10:03:16.800Z,2.77
2018-12-08T10:05:45.050Z,2.03
2018-12-08T10:08:13.280Z,3.77
2018-12-08T10:10:41.507Z,2.63
2018-12-08T10:13:09.697Z,3.00
2018-12-08T10:15:37.966Z,2.57
2018-12-08T10:18:07.607Z,2.60
2018-12-08T10:20:35.783Z,3.67
2018-12-08T10:23:04.059Z,5.70
2018-12-08T10:25:32.429Z,3.73
2018-12-08T10:28:00.610Z,5.23
2018-12-08T10:30:28.777Z,3.93
2018-12-08T10:32:57.486Z,3.10
2018-12-08T10:35:25.774Z,3.30
2018-12-08T10:37:53.991Z,2.83
2018-12-08T10:40:22.282Z,4.77
2018-12-08T10:42:50.549Z,3.47
2018-12-08T10:45:18.851Z,3.07
2018-12-08T10:47:47.051Z,3.60
2018-12-08T10:50:15.241Z,3.30
2018-12-08T10:52:43.654Z,5.40
2018-12-08T10:55:12.594Z,4.13
2018-12-08T10:57:40.925Z,2.50
2018-12-08T11:00:14.447Z,3.90
2018-12-08T11:02:47.132Z,4.60
2018-12-08T11:05:15.295Z,3.10
2018-12-08T11:07:43.662Z,2.70
2018-12-08T11:10:11.920Z,2.73
2018-12-08T11:12:40.188Z,3.77
2018-12-08T11:15:09.136Z,4.17
2018-12-08T11:17:37.316Z,3.20
2018-12-08T11:20:06.182Z,3.77
2018-12-08T11:22:34.962Z,3.03
2018-12-08T11:25:03.225Z,4.10
2018-12-08T11:27:31.606Z,2.90
2018-12-08T11:29:59.920Z,3.50
2018-12-08T11:32:28.178Z,2.50
2018-12-08T11:34:56.433Z,3.50
2018-12-08T11:37:24.718Z,1.10
2018-12-08T11:39:52.998Z,3.33
2018-12-08T11:42:21.592Z,2.20
2018-12-08T11:44:50.063Z,2.90
2018-12-08T11:47:18.567Z,2.70
2018-12-08T11:49:46.835Z,1.80
2018-12-08T11:52:15.121Z,2.37
2018-12-08T11:54:43.582Z,3.20
2018-12-08T11:57:11.939Z,2.37
2018-12-08T11:59:40.171Z,3.00
2018-12-08T12:02:16.345Z,3.37
2018-12-08T12:04:38.767Z,4.03
2018-12-08T12:07:06.994Z,3.83
2018-12-08T12:09:35.238Z,3.23
2018-12-08T12:12:03.545Z,2.77
2018-12-08T12:14:43.714Z,3.13
2018-12-08T12:17:11.889Z,2.90
2018-12-08T12:19:40.065Z,2.90
2018-12-08T12:22:08.313Z,2.53
2018-12-08T12:24:36.486Z,2.90
2018-12-08T12:27:05.124Z,2.80
2018-12-08T12:29:33.367Z,3.57
2018-12-08T12:32:01.757Z,4.90
2018-12-08T12:34:30.084Z,3.80
2018-12-08T12:36:58.366Z,3.43
2018-12-08T12:39:26.671Z,2.57
2018-12-08T12:41:54.942Z,3.80
2018-12-08T12:44:23.213Z,3.00
2018-12-08T12:46:51.395Z,3.07
2018-12-08T12:49:19.692Z,4.00
2018-12-08T12:51:48.063Z,3.17
2018-12-08T12:54:16.273Z,2.73
2018-12-08T12:56:44.484Z,2.97
2018-12-08T12:59:12.703Z,3.20
2018-12-08T13:01:41.667Z,3.70
2018-12-08T13:04:09.831Z,2.90
2018-12-08T13:06:38.136Z,3.97
2018-12-08T13:09:07.542Z,3.70
2018-12-08T13:11:35.824Z,2.90
2018-12-08T13:14:04.173Z,5.00
2018-12-08T13:16:32.507Z,4.90
2018-12-08T13:19:01.032Z,2.93
2018-12-08T13:21:29.246Z,3.10
2018-12-08T13:23:57.626Z,3.60
2018-12-08T13:26:26.403Z,4.10
2018-12-08T13:28:54.652Z,3.47
2018-12-08T13:31:22.817Z,4.13
2018-12-08T13:33:52.751Z,3.90
2018-12-08T13:36:21.071Z,3.10
2018-12-08T13:38:49.368Z,2.53
2018-12-08T13:41:17.727Z,3.37
2018-12-08T13:43:53.861Z,3.73
2018-12-08T13:46:22.242Z,2.40
2018-12-08T13:48:50.536Z,3.67
2018-12-08T13:51:19.316Z,2.70
2018-12-08T13:53:47.542Z,2.13
2018-12-08T13:56:15.726Z,2.87
2018-12-08T13:58:43.970Z,2.43
2018-12-08T14:01:12.235Z,2.70
2018-12-08T14:03:40.418Z,2.70
2018-12-08T14:06:09.093Z,2.20
2018-12-08T14:08:37.368Z,2.17
2018-12-08T14:11:05.657Z,3.03
2018-12-08T14:13:33.915Z,2.10
2018-12-08T14:16:02.107Z,3.20
2018-12-08T14:18:30.386Z,3.83
2018-12-08T14:20:58.930Z,4.53
2018-12-08T14:23:27.280Z,3.53
2018-12-08T14:25:55.619Z,4.43
2018-12-08T14:28:23.859Z,3.90
2018-12-08T14:30:52.208Z,3.97
2018-12-08T14:33:20.395Z,3.30
2018-12-08T14:35:48.592Z,2.63
2018-12-08T14:38:16.745Z,3.93
2018-12-08T14:40:45.015Z,3.60
2018-12-08T14:43:13.450Z,3.17
2018-12-08T14:45:41.666Z,6.23
2018-12-08T14:48:09.918Z,2.87
2018-12-08T14:50:38.150Z,4.07
2018-12-08T14:53:06.575Z,5.10
2018-12-08T14:55:34.789Z,5.77
2018-12-08T14:58:03.905Z,5.50
2018-12-08T15:00:32.336Z,3.87
2018-12-08T15:03:00.610Z,3.53
2018-12-08T15:05:29.585Z,4.20
2018-12-08T15:07:57.767Z,4.97
2018-12-08T15:10:26.011Z,5.90
2018-12-08T15:12:54.209Z,5.13
2018-12-08T15:15:22.615Z,5.40
2018-12-08T15:17:51.552Z,9.60
2018-12-08T15:20:21.133Z,5.97
2018-12-08T15:22:49.312Z,4.70
2018-12-08T15:25:17.513Z,5.70
2018-12-08T15:27:45.748Z,5.20
2018-12-08T15:30:14.029Z,5.80
2018-12-08T15:32:42.205Z,5.90
2018-12-08T15:35:12.340Z,4.80
2018-12-08T15:37:41.197Z,3.83
2018-12-08T15:40:10.228Z,6.63
2018-12-08T15:42:38.946Z,4.63
2018-12-08T15:45:09.431Z,5.00
2018-12-08T15:47:37.742Z,4.70
2018-12-08T15:50:06.580Z,4.90
2018-12-08T15:52:34.947Z,3.97
2018-12-08T15:55:03.982Z,4.17
2018-12-08T15:57:32.169Z,6.20
2018-12-08T16:00:00.342Z,4.40
2018-12-08T16:02:28.675Z,6.93
2018-12-08T16:04:56.900Z,4.93
2018-12-08T16:07:25.538Z,4.23
2018-12-08T16:09:53.942Z,5.37
2018-12-08T16:12:22.684Z,3.93
2018-12-08T16:14:51.015Z,5.33
2018-12-08T16:17:19.318Z,3.90
2018-12-08T16:19:47.580Z,4.30
2018-12-08T16:22:16.247Z,4.57
2018-12-08T16:24:44.663Z,4.10
2018-12-08T16:27:12.839Z,5.27
2018-12-08T16:29:41.116Z,4.13
2018-12-08T16:32:09.302Z,4.37
2018-12-08T16:34:37.617Z,4.10
2018-12-08T16:37:05.855Z,4.40
2018-12-08T16:39:34.126Z,4.50
2018-12-08T16:42:02.530Z,4.40
2018-12-08T16:44:30.722Z,3.87
2018-12-08T16:46:58.927Z,3.90
2018-12-08T16:49:27.155Z,5.43
2018-12-08T16:51:55.547Z,4.43
2018-12-08T16:54:23.839Z,3.70
2018-12-08T16:56:52.245Z,3.60
2018-12-08T16:59:20.406Z,3.13
2018-12-08T17:01:52.269Z,3.10
2018-12-08T17:04:21.638Z,2.83
2018-12-08T17:06:49.964Z,3.30
2018-12-08T17:09:18.135Z,1.30
2018-12-08T17:11:46.354Z,2.30
2018-12-08T17:14:14.541Z,2.97
2018-12-08T17:16:43.316Z,3.43
2018-12-08T17:19:11.477Z,2.80
2018-12-08T17:21:39.819Z,2.03
2018-12-08T17:24:08.224Z,1.80
2018-12-08T17:26:36.474Z,1.80
2018-12-08T17:29:06.089Z,1.43
2018-12-08T17:31:34.677Z,2.97
2018-12-08T17:34:02.996Z,1.83
2018-12-08T17:36:31.346Z,1.27
2018-12-08T17:38:59.531Z,2.27
2018-12-08T17:41:27.694Z,2.50
2018-12-08T17:43:56.155Z,2.27
2018-12-08T17:46:24.325Z,1.10
2018-12-08T17:48:52.513Z,1.43
2018-12-08T17:51:20.774Z,1.40
2018-12-08T17:53:49.062Z,1.50
2018-12-08T17:56:17.694Z,1.40
2018-12-08T17:58:45.876Z,1.00
2018-12-08T18:01:14.054Z,2.10
2018-12-08T18:03:42.258Z,1.60
2018-12-08T18:06:10.498Z,0.83
2018-12-08T18:08:38.679Z,1.20
2018-12-08T18:11:07.059Z,1.27
2018-12-08T18:13:35.336Z,1.63
2018-12-08T18:16:03.824Z,0.87
2018-12-08T18:18:32.762Z,0.90
2018-12-08T18:21:01.165Z,0.97
2018-12-08T18:23:30.181Z,0.90
2018-12-08T18:25:58.638Z,2.07
2018-12-08T18:28:26.908Z,2.27
2018-12-08T18:30:55.068Z,0.97
2018-12-08T18:33:23.500Z,0.90
2018-12-08T18:35:51.686Z,0.70
2018-12-08T18:38:20.551Z,1.10
2018-12-08T18:40:48.758Z,1.03
2018-12-08T18:43:16.970Z,0.90
2018-12-08T18:45:45.593Z,1.23
2018-12-08T18:48:13.826Z,5.83
2018-12-08T18:50:42.077Z,1.27
2018-12-08T18:53:10.399Z,1.10
2018-12-08T18:55:38.563Z,1.03
2018-12-08T18:58:06.725Z,1.23
2018-12-08T19:00:35.167Z,0.90
2018-12-08T19:03:03.504Z,0.90
2018-12-08T19:05:31.863Z,0.90
2018-12-08T19:08:01.120Z,1.53
2018-12-08T19:10:29.279Z,1.40
2018-12-08T19:12:57.438Z,2.00
2018-12-08T19:15:25.918Z,2.90
2018-12-08T19:17:54.284Z,1.00
2018-12-08T19:20:22.550Z,1.00
2018-12-08T19:22:51.221Z,0.77
2018-12-08T19:25:19.438Z,1.50
2018-12-08T19:27:47.623Z,1.10
2018-12-08T19:30:15.948Z,0.80
2018-12-08T19:32:44.456Z,1.83
2018-12-08T19:35:12.670Z,1.00
2018-12-08T19:37:40.848Z,1.07
2018-12-08T19:40:09.459Z,2.20
2018-12-08T19:42:39.489Z,1.77
2018-12-08T19:45:08.327Z,0.90
2018-12-08T19:47:36.776Z,1.20
2018-12-08T19:50:05.303Z,1.30
2018-12-08T19:52:33.654Z,1.77
2018-12-08T19:55:02.562Z,1.20
2018-12-08T19:57:30.719Z,1.93
2018-12-08T19:59:59.438Z,0.83
2018-12-08T20:02:27.653Z,1.30
2018-12-08T20:04:55.815Z,0.90
2018-12-08T20:07:24.121Z,0.90
2018-12-08T20:09:52.290Z,1.10
2018-12-08T20:12:20.463Z,1.00
2018-12-08T20:14:48.880Z,1.00
2018-12-08T20:17:17.162Z,1.10
2018-12-08T20:19:45.598Z,1.37
2018-12-08T20:22:14.081Z,1.27
2018-12-08T20:24:42.611Z,1.90
2018-12-08T20:27:10.816Z,2.00
2018-12-08T20:29:39.016Z,1.17
2018-12-08T20:32:07.469Z,2.57
2018-12-08T20:34:35.686Z,1.87
2018-12-08T20:37:04.020Z,2.30
2018-12-08T20:39:32.351Z,0.93
2018-12-08T20:42:00.547Z,1.23
2018-12-08T20:44:28.786Z,1.10
2018-12-08T20:46:57.113Z,0.87
2018-12-08T20:49:25.354Z,0.53
2018-12-08T20:51:53.874Z,0.50
2018-12-08T20:54:22.175Z,0.60
2018-12-08T20:56:50.421Z,0.90
2018-12-08T20:59:18.554Z,0.60
2018-12-08T21:01:47.063Z,0.93
2018-12-08T21:04:15.457Z,0.70
2018-12-08T21:06:43.683Z,0.60
2018-12-08T21:09:11.910Z,0.63
2018-12-08T21:11:40.420Z,0.87
2018-12-08T21:14:08.751Z,1.00
2018-12-08T21:16:37.095Z,0.90
2018-12-08T21:19:05.404Z,0.70
2018-12-08T21:21:33.733Z,0.70
2018-12-08T21:24:02.611Z,0.93
2018-12-08T21:26:30.955Z,0.70
2018-12-08T21:28:59.356Z,0.70
2018-12-08T21:31:27.674Z,0.80
2018-12-08T21:33:55.847Z,1.00
2018-12-08T21:36:24.203Z,1.00
2018-12-08T21:38:52.463Z,1.17
2018-12-08T21:41:20.689Z,1.13
2018-12-08T21:43:48.859Z,0.60
2018-12-08T21:46:17.130Z,1.20
2018-12-08T21:48:45.354Z,0.97
2018-12-08T21:51:13.576Z,0.70
2018-12-08T21:53:41.813Z,1.20
2018-12-08T21:56:10.057Z,0.98
2018-12-08T21:58:38.285Z,1.07
2018-12-08T22:01:06.669Z,0.90
2018-12-08T22:03:34.807Z,1.33
2018-12-08T22:06:03.062Z,1.20
2018-12-08T22:08:31.278Z,1.03
2018-12-08T22:10:59.450Z,1.33
2018-12-08T22:13:27.625Z,1.20
2018-12-08T22:15:55.794Z,1.00
2018-12-08T22:18:23.965Z,1.27
2018-12-08T22:20:52.168Z,1.83
2018-12-08T22:23:20.330Z,1.70
2018-12-08T22:25:48.498Z,1.83
2018-12-08T22:28:16.807Z,2.03
2018-12-08T22:30:45.071Z,1.13
2018-12-08T22:33:13.246Z,1.63
2018-12-08T22:35:41.536Z,1.60
2018-12-08T22:38:09.699Z,1.90
2018-12-08T22:40:37.995Z,1.63
2018-12-08T22:43:06.155Z,1.70
2018-12-08T22:45:34.412Z,1.30
2018-12-08T22:48:03.190Z,1.87
2018-12-08T22:50:31.391Z,1.23
2018-12-08T22:52:59.553Z,2.37
2018-12-08T22:55:27.770Z,1.50
2018-12-08T22:57:55.972Z,1.83
2018-12-08T23:00:37.845Z,1.77
2018-12-08T23:03:06.111Z,3.20
2018-12-08T23:05:34.286Z,1.90
2018-12-08T23:08:03.082Z,1.77
2018-12-08T23:10:31.495Z,2.80
2018-12-08T23:12:59.772Z,2.73
2018-12-08T23:15:28.030Z,2.90
2018-12-08T23:17:56.303Z,2.00
2018-12-08T23:20:25.233Z,3.50
2018-12-08T23:22:53.638Z,4.40
2018-12-08T23:25:21.996Z,5.33
2018-12-08T23:27:50.159Z,3.67
2018-12-08T23:30:18.428Z,3.60
2018-12-08T23:32:46.760Z,4.20
2018-12-08T23:35:15.022Z,4.67
2018-12-08T23:37:43.186Z,2.83
2018-12-08T23:40:11.486Z,3.43
2018-12-08T23:42:39.864Z,6.13
2018-12-08T23:45:08.274Z,3.40
2018-12-08T23:47:36.452Z,4.23
2018-12-08T23:50:06.006Z,3.90
2018-12-08T23:52:34.320Z,2.67
2018-12-08T23:55:02.694Z,3.43
2018-12-08T23:57:30.858Z,2.50
2018-12-08T23:59:59.047Z,1.60
